KDSM/DSM METAR and TAF weather

Enter ICAO airport designator
Station Type Date Time Source
KDSM METAR 2020/09/21 07:54 UTC NOAA

KDSM 210754Z 15008KT 10SM CLR 12/07 A3024 RMK AO2 SLP237 T01170072


Station Type Date Time Source
KDSM Decoded METAR 2020/09/21 07:54 UTC NOAA

DES MOINES INTERNATIONAL, IA, United States (KDSM) 41-32N 93-40W 295M
Sep 21, 2020 - 03:54 AM EDT / 2020.09.21 0754 UTC
Wind: from the SSE (150 degrees) at 9 MPH (8 KT):0
Visibility: 10 mile(s):0
Sky conditions: clear
Temperature: 53.1 F (11.7 C)
Dew Point: 45.0 F (7.2 C)
Relative Humidity: 73%
Pressure (altimeter): 30.24 in. Hg (1024 hPa)
ob: KDSM 210754Z 15008KT 10SM CLR 12/07 A3024 RMK AO2 SLP237 T01170072
cycle: 8

Station Type Date Time Source
KDSM TAF 2020/09/21 06:21 UTC NOAA

TAF KDSM 210520Z 2106/2206 15009KT P6SM SKC
FM211700 19013G23KT P6SM SCT250
FM220000 16009KT P6SM SCT250

Example: see airport list